sensor_id;sensor_type;location;lat;lon;timestamp;P1;durP1;ratioP1;P2;durP2;ratioP2
49730;SDS011;35622;52.008;5.426;2023-02-15T00:01:24;34.90;;;19.43;;
49730;SDS011;35622;52.008;5.426;2023-02-15T00:03:50;40.47;;;20.37;;
49730;SDS011;35622;52.008;5.426;2023-02-15T00:06:16;38.17;;;19.97;;
49730;SDS011;35622;52.008;5.426;2023-02-15T00:08:42;37.63;;;19.53;;
49730;SDS011;35622;52.008;5.426;2023-02-15T00:11:12;38.77;;;19.63;;
49730;SDS011;35622;52.008;5.426;2023-02-15T00:13:39;39.37;;;20.07;;
49730;SDS011;35622;52.008;5.426;2023-02-15T00:16:12;37.73;;;19.27;;
49730;SDS011;35622;52.008;5.426;2023-02-15T00:18:38;38.83;;;19.03;;
49730;SDS011;35622;52.008;5.426;2023-02-15T00:21:08;38.90;;;19.37;;
49730;SDS011;35622;52.008;5.426;2023-02-15T00:23:35;34.63;;;18.47;;
49730;SDS011;35622;52.008;5.426;2023-02-15T00:26:05;32.97;;;18.53;;
49730;SDS011;35622;52.008;5.426;2023-02-15T00:28:32;33.43;;;18.23;;
49730;SDS011;35622;52.008;5.426;2023-02-15T00:31:10;34.50;;;18.77;;
49730;SDS011;35622;52.008;5.426;2023-02-15T00:33:37;36.20;;;19.13;;
49730;SDS011;35622;52.008;5.426;2023-02-15T00:36:04;34.67;;;19.03;;
49730;SDS011;35622;52.008;5.426;2023-02-15T00:38:32;31.63;;;17.93;;
49730;SDS011;35622;52.008;5.426;2023-02-15T00:40:59;33.40;;;19.23;;
49730;SDS011;35622;52.008;5.426;2023-02-15T00:43:26;37.47;;;20.20;;
49730;SDS011;35622;52.008;5.426;2023-02-15T00:45:53;35.27;;;18.87;;
49730;SDS011;35622;52.008;5.426;2023-02-15T00:48:19;35.63;;;19.57;;
49730;SDS011;35622;52.008;5.426;2023-02-15T00:50:49;35.50;;;19.30;;
49730;SDS011;35622;52.008;5.426;2023-02-15T00:53:16;34.23;;;19.20;;
49730;SDS011;35622;52.008;5.426;2023-02-15T00:55:42;35.60;;;19.53;;
49730;SDS011;35622;52.008;5.426;2023-02-15T00:58:08;36.53;;;18.93;;
49730;SDS011;35622;52.008;5.426;2023-02-15T01:00:35;34.67;;;18.77;;
49730;SDS011;35622;52.008;5.426;2023-02-15T01:03:01;34.87;;;17.97;;
49730;SDS011;35622;52.008;5.426;2023-02-15T01:05:27;32.00;;;18.50;;
49730;SDS011;35622;52.008;5.426;2023-02-15T01:07:54;33.07;;;18.23;;
49730;SDS011;35622;52.008;5.426;2023-02-15T01:10:21;33.40;;;18.10;;
49730;SDS011;35622;52.008;5.426;2023-02-15T01:12:46;31.23;;;18.53;;
49730;SDS011;35622;52.008;5.426;2023-02-15T01:15:12;37.37;;;18.93;;
49730;SDS011;35622;52.008;5.426;2023-02-15T01:17:37;35.20;;;18.63;;
49730;SDS011;35622;52.008;5.426;2023-02-15T01:20:03;40.00;;;19.87;;
49730;SDS011;35622;52.008;5.426;2023-02-15T01:22:30;36.63;;;19.87;;
49730;SDS011;35622;52.008;5.426;2023-02-15T01:24:55;37.30;;;19.37;;
49730;SDS011;35622;52.008;5.426;2023-02-15T01:27:21;36.83;;;20.07;;
49730;SDS011;35622;52.008;5.426;2023-02-15T01:29:46;38.20;;;20.37;;
49730;SDS011;35622;52.008;5.426;2023-02-15T01:32:12;38.03;;;20.30;;
49730;SDS011;35622;52.008;5.426;2023-02-15T01:34:38;35.40;;;20.63;;
49730;SDS011;35622;52.008;5.426;2023-02-15T01:37:03;34.10;;;18.73;;
49730;SDS011;35622;52.008;5.426;2023-02-15T01:39:29;36.93;;;19.23;;
49730;SDS011;35622;52.008;5.426;2023-02-15T01:41:54;36.37;;;19.40;;
49730;SDS011;35622;52.008;5.426;2023-02-15T01:47:13;31.33;;;17.20;;
49730;SDS011;35622;52.008;5.426;2023-02-15T01:49:42;36.57;;;17.43;;
49730;SDS011;35622;52.008;5.426;2023-02-15T01:52:11;34.07;;;18.20;;
49730;SDS011;35622;52.008;5.426;2023-02-15T01:54:40;29.90;;;16.50;;
49730;SDS011;35622;52.008;5.426;2023-02-15T01:57:09;32.20;;;17.70;;
49730;SDS011;35622;52.008;5.426;2023-02-15T01:59:38;32.70;;;18.20;;
49730;SDS011;35622;52.008;5.426;2023-02-15T02:02:07;39.50;;;18.97;;
49730;SDS011;35622;52.008;5.426;2023-02-15T02:04:51;33.77;;;18.77;;
49730;SDS011;35622;52.008;5.426;2023-02-15T02:07:22;36.00;;;19.77;;
49730;SDS011;35622;52.008;5.426;2023-02-15T02:09:51;33.67;;;18.10;;
49730;SDS011;35622;52.008;5.426;2023-02-15T02:12:17;36.03;;;18.90;;
49730;SDS011;35622;52.008;5.426;2023-02-15T02:14:44;40.20;;;21.13;;
49730;SDS011;35622;52.008;5.426;2023-02-15T02:17:22;37.63;;;20.10;;
49730;SDS011;35622;52.008;5.426;2023-02-15T02:36:52;40.00;;;20.53;;
49730;SDS011;35622;52.008;5.426;2023-02-15T02:39:33;43.13;;;19.93;;
49730;SDS011;35622;52.008;5.426;2023-02-15T02:42:06;42.23;;;20.50;;
49730;SDS011;35622;52.008;5.426;2023-02-15T02:44:42;38.60;;;21.13;;
49730;SDS011;35622;52.008;5.426;2023-02-15T02:47:14;42.33;;;20.00;;
49730;SDS011;35622;52.008;5.426;2023-02-15T02:49:45;41.57;;;21.33;;
49730;SDS011;35622;52.008;5.426;2023-02-15T02:55:02;41.80;;;21.47;;
49730;SDS011;35622;52.008;5.426;2023-02-15T02:57:30;43.13;;;20.63;;
49730;SDS011;35622;52.008;5.426;2023-02-15T02:59:58;37.70;;;19.90;;
49730;SDS011;35622;52.008;5.426;2023-02-15T03:02:29;41.83;;;20.00;;
49730;SDS011;35622;52.008;5.426;2023-02-15T03:05:03;42.90;;;20.87;;
49730;SDS011;35622;52.008;5.426;2023-02-15T03:07:33;39.63;;;20.43;;
49730;SDS011;35622;52.008;5.426;2023-02-15T03:10:01;39.47;;;19.93;;
49730;SDS011;35622;52.008;5.426;2023-02-15T03:12:34;40.57;;;20.00;;
49730;SDS011;35622;52.008;5.426;2023-02-15T03:15:06;41.07;;;20.90;;
49730;SDS011;35622;52.008;5.426;2023-02-15T03:17:43;49.43;;;20.13;;
49730;SDS011;35622;52.008;5.426;2023-02-15T03:20:33;42.43;;;20.67;;
49730;SDS011;35622;52.008;5.426;2023-02-15T03:23:07;38.00;;;20.43;;
49730;SDS011;35622;52.008;5.426;2023-02-15T03:25:39;47.87;;;22.07;;
49730;SDS011;35622;52.008;5.426;2023-02-15T03:28:09;43.03;;;20.87;;
49730;SDS011;35622;52.008;5.426;2023-02-15T03:30:40;50.97;;;24.13;;
49730;SDS011;35622;52.008;5.426;2023-02-15T03:33:10;49.67;;;23.07;;
49730;SDS011;35622;52.008;5.426;2023-02-15T03:38:14;51.97;;;24.77;;
49730;SDS011;35622;52.008;5.426;2023-02-15T03:40:45;46.33;;;24.13;;
49730;SDS011;35622;52.008;5.426;2023-02-15T03:43:39;49.40;;;23.13;;
49730;SDS011;35622;52.008;5.426;2023-02-15T03:49:22;45.47;;;22.27;;
49730;SDS011;35622;52.008;5.426;2023-02-15T03:51:55;53.53;;;24.50;;
49730;SDS011;35622;52.008;5.426;2023-02-15T03:57:11;49.13;;;23.90;;
49730;SDS011;35622;52.008;5.426;2023-02-15T03:59:58;55.00;;;23.63;;
49730;SDS011;35622;52.008;5.426;2023-02-15T04:02:47;48.60;;;23.70;;
49730;SDS011;35622;52.008;5.426;2023-02-15T04:05:20;49.90;;;23.90;;
49730;SDS011;35622;52.008;5.426;2023-02-15T04:07:46;44.67;;;23.77;;
49730;SDS011;35622;52.008;5.426;2023-02-15T04:10:12;44.37;;;23.37;;
49730;SDS011;35622;52.008;5.426;2023-02-15T04:12:56;45.67;;;23.40;;
49730;SDS011;35622;52.008;5.426;2023-02-15T04:15:21;49.47;;;22.93;;
49730;SDS011;35622;52.008;5.426;2023-02-15T04:18:05;41.33;;;21.50;;
49730;SDS011;35622;52.008;5.426;2023-02-15T04:20:31;44.90;;;22.60;;
49730;SDS011;35622;52.008;5.426;2023-02-15T04:23:15;52.60;;;22.90;;
49730;SDS011;35622;52.008;5.426;2023-02-15T04:26:02;46.83;;;23.17;;
49730;SDS011;35622;52.008;5.426;2023-02-15T04:28:29;49.47;;;21.83;;
49730;SDS011;35622;52.008;5.426;2023-02-15T04:30:55;52.47;;;23.00;;
49730;SDS011;35622;52.008;5.426;2023-02-15T04:33:20;48.93;;;23.63;;
49730;SDS011;35622;52.008;5.426;2023-02-15T04:35:46;51.97;;;25.30;;
49730;SDS011;35622;52.008;5.426;2023-02-15T04:38:11;55.80;;;24.57;;
49730;SDS011;35622;52.008;5.426;2023-02-15T04:40:37;43.73;;;22.33;;
49730;SDS011;35622;52.008;5.426;2023-02-15T04:43:02;53.47;;;25.50;;
49730;SDS011;35622;52.008;5.426;2023-02-15T04:45:28;47.63;;;23.27;;
49730;SDS011;35622;52.008;5.426;2023-02-15T04:47:54;45.77;;;22.80;;
49730;SDS011;35622;52.008;5.426;2023-02-15T04:50:19;49.67;;;23.53;;
49730;SDS011;35622;52.008;5.426;2023-02-15T04:52:45;45.93;;;21.97;;
49730;SDS011;35622;52.008;5.426;2023-02-15T04:55:10;47.77;;;22.37;;
49730;SDS011;35622;52.008;5.426;2023-02-15T04:57:36;51.50;;;24.47;;
49730;SDS011;35622;52.008;5.426;2023-02-15T05:00:02;51.67;;;24.90;;
49730;SDS011;35622;52.008;5.426;2023-02-15T05:02:27;56.93;;;24.53;;
49730;SDS011;35622;52.008;5.426;2023-02-15T05:04:53;52.10;;;25.57;;
49730;SDS011;35622;52.008;5.426;2023-02-15T05:07:18;47.17;;;22.67;;
49730;SDS011;35622;52.008;5.426;2023-02-15T05:09:45;47.83;;;22.97;;
49730;SDS011;35622;52.008;5.426;2023-02-15T05:12:10;48.60;;;22.67;;
49730;SDS011;35622;52.008;5.426;2023-02-15T05:14:36;43.97;;;22.80;;
49730;SDS011;35622;52.008;5.426;2023-02-15T05:17:01;47.43;;;23.20;;
49730;SDS011;35622;52.008;5.426;2023-02-15T05:19:28;45.93;;;22.83;;
49730;SDS011;35622;52.008;5.426;2023-02-15T05:21:53;50.57;;;23.83;;
49730;SDS011;35622;52.008;5.426;2023-02-15T05:24:19;50.53;;;23.70;;
49730;SDS011;35622;52.008;5.426;2023-02-15T05:27:04;51.90;;;23.27;;
49730;SDS011;35622;52.008;5.426;2023-02-15T05:29:48;45.43;;;22.37;;
49730;SDS011;35622;52.008;5.426;2023-02-15T05:32:14;51.80;;;22.90;;
49730;SDS011;35622;52.008;5.426;2023-02-15T05:34:39;49.57;;;23.70;;
49730;SDS011;35622;52.008;5.426;2023-02-15T05:37:05;48.87;;;23.70;;
49730;SDS011;35622;52.008;5.426;2023-02-15T05:39:32;47.47;;;23.27;;
49730;SDS011;35622;52.008;5.426;2023-02-15T05:41:58;51.03;;;23.20;;
49730;SDS011;35622;52.008;5.426;2023-02-15T05:44:25;51.33;;;24.43;;
49730;SDS011;35622;52.008;5.426;2023-02-15T05:46:50;47.07;;;23.30;;
49730;SDS011;35622;52.008;5.426;2023-02-15T05:49:16;53.63;;;24.20;;
49730;SDS011;35622;52.008;5.426;2023-02-15T05:51:41;47.53;;;22.03;;
49730;SDS011;35622;52.008;5.426;2023-02-15T05:54:07;47.73;;;23.50;;
49730;SDS011;35622;52.008;5.426;2023-02-15T05:56:32;51.40;;;24.17;;
49730;SDS011;35622;52.008;5.426;2023-02-15T05:58:58;43.37;;;22.07;;
49730;SDS011;35622;52.008;5.426;2023-02-15T06:01:23;56.10;;;23.67;;
49730;SDS011;35622;52.008;5.426;2023-02-15T06:03:49;47.90;;;22.83;;
49730;SDS011;35622;52.008;5.426;2023-02-15T06:06:15;43.70;;;22.20;;
49730;SDS011;35622;52.008;5.426;2023-02-15T06:08:41;42.73;;;21.00;;
49730;SDS011;35622;52.008;5.426;2023-02-15T06:11:06;52.63;;;24.50;;
49730;SDS011;35622;52.008;5.426;2023-02-15T06:13:32;49.13;;;21.97;;
49730;SDS011;35622;52.008;5.426;2023-02-15T06:15:59;52.67;;;24.87;;
49730;SDS011;35622;52.008;5.426;2023-02-15T06:18:24;47.10;;;23.60;;
49730;SDS011;35622;52.008;5.426;2023-02-15T06:20:50;44.93;;;22.07;;
49730;SDS011;35622;52.008;5.426;2023-02-15T06:23:16;45.17;;;22.13;;
49730;SDS011;35622;52.008;5.426;2023-02-15T06:25:42;50.07;;;23.20;;
49730;SDS011;35622;52.008;5.426;2023-02-15T06:28:09;52.93;;;24.20;;
49730;SDS011;35622;52.008;5.426;2023-02-15T06:30:34;49.77;;;23.10;;
49730;SDS011;35622;52.008;5.426;2023-02-15T06:33:00;48.47;;;22.73;;
49730;SDS011;35622;52.008;5.426;2023-02-15T06:35:25;48.77;;;24.10;;
49730;SDS011;35622;52.008;5.426;2023-02-15T06:37:51;45.27;;;22.03;;
49730;SDS011;35622;52.008;5.426;2023-02-15T06:40:16;50.33;;;23.00;;
49730;SDS011;35622;52.008;5.426;2023-02-15T06:42:42;53.43;;;23.80;;
49730;SDS011;35622;52.008;5.426;2023-02-15T06:45:08;53.67;;;25.17;;
49730;SDS011;35622;52.008;5.426;2023-02-15T06:47:35;48.43;;;24.63;;
49730;SDS011;35622;52.008;5.426;2023-02-15T06:50:01;50.43;;;23.83;;
49730;SDS011;35622;52.008;5.426;2023-02-15T06:52:27;42.60;;;21.37;;
49730;SDS011;35622;52.008;5.426;2023-02-15T06:54:54;49.07;;;23.80;;
49730;SDS011;35622;52.008;5.426;2023-02-15T06:57:19;49.90;;;23.10;;
49730;SDS011;35622;52.008;5.426;2023-02-15T06:59:45;52.17;;;23.37;;
49730;SDS011;35622;52.008;5.426;2023-02-15T07:02:11;49.80;;;24.13;;
49730;SDS011;35622;52.008;5.426;2023-02-15T07:04:37;47.63;;;23.03;;
49730;SDS011;35622;52.008;5.426;2023-02-15T07:07:03;45.20;;;23.03;;
49730;SDS011;35622;52.008;5.426;2023-02-15T07:09:29;48.03;;;23.57;;
49730;SDS011;35622;52.008;5.426;2023-02-15T07:11:54;53.47;;;24.13;;
49730;SDS011;35622;52.008;5.426;2023-02-15T07:14:38;54.80;;;25.20;;
49730;SDS011;35622;52.008;5.426;2023-02-15T07:17:05;45.53;;;23.27;;
49730;SDS011;35622;52.008;5.426;2023-02-15T07:19:31;47.83;;;24.20;;
49730;SDS011;35622;52.008;5.426;2023-02-15T07:21:56;47.63;;;23.20;;
49730;SDS011;35622;52.008;5.426;2023-02-15T07:24:22;49.60;;;23.40;;
49730;SDS011;35622;52.008;5.426;2023-02-15T07:26:48;52.37;;;25.80;;
49730;SDS011;35622;52.008;5.426;2023-02-15T07:29:13;46.33;;;23.93;;
49730;SDS011;35622;52.008;5.426;2023-02-15T07:31:40;48.03;;;23.33;;
49730;SDS011;35622;52.008;5.426;2023-02-15T07:34:08;47.00;;;24.10;;
49730;SDS011;35622;52.008;5.426;2023-02-15T07:36:33;47.40;;;23.93;;
49730;SDS011;35622;52.008;5.426;2023-02-15T07:38:59;49.30;;;24.50;;
49730;SDS011;35622;52.008;5.426;2023-02-15T07:41:24;47.10;;;23.57;;
49730;SDS011;35622;52.008;5.426;2023-02-15T07:43:50;45.67;;;23.30;;
49730;SDS011;35622;52.008;5.426;2023-02-15T07:46:16;42.30;;;23.43;;
49730;SDS011;35622;52.008;5.426;2023-02-15T07:48:42;49.00;;;23.27;;
49730;SDS011;35622;52.008;5.426;2023-02-15T07:51:09;47.40;;;23.20;;
49730;SDS011;35622;52.008;5.426;2023-02-15T07:53:36;45.03;;;24.07;;
49730;SDS011;35622;52.008;5.426;2023-02-15T07:56:03;40.00;;;22.20;;
49730;SDS011;35622;52.008;5.426;2023-02-15T07:58:35;47.90;;;23.13;;
49730;SDS011;35622;52.008;5.426;2023-02-15T08:01:16;44.33;;;23.73;;
49730;SDS011;35622;52.008;5.426;2023-02-15T08:03:43;44.60;;;23.57;;
49730;SDS011;35622;52.008;5.426;2023-02-15T08:06:09;40.03;;;23.10;;
49730;SDS011;35622;52.008;5.426;2023-02-15T08:08:36;45.80;;;24.20;;
49730;SDS011;35622;52.008;5.426;2023-02-15T08:11:06;41.57;;;23.13;;
49730;SDS011;35622;52.008;5.426;2023-02-15T08:18:55;40.90;;;22.10;;
49730;SDS011;35622;52.008;5.426;2023-02-15T08:21:23;45.90;;;24.27;;
49730;SDS011;35622;52.008;5.426;2023-02-15T08:23:51;45.83;;;26.07;;
49730;SDS011;35622;52.008;5.426;2023-02-15T08:26:17;45.43;;;24.40;;
49730;SDS011;35622;52.008;5.426;2023-02-15T08:28:43;43.50;;;24.67;;
49730;SDS011;35622;52.008;5.426;2023-02-15T08:31:10;45.07;;;25.23;;
49730;SDS011;35622;52.008;5.426;2023-02-15T08:33:37;43.03;;;24.60;;
49730;SDS011;35622;52.008;5.426;2023-02-15T08:36:06;39.17;;;23.07;;
49730;SDS011;35622;52.008;5.426;2023-02-15T08:38:36;40.63;;;23.10;;
49730;SDS011;35622;52.008;5.426;2023-02-15T08:41:09;41.20;;;24.17;;
49730;SDS011;35622;52.008;5.426;2023-02-15T08:43:34;44.17;;;25.47;;
49730;SDS011;35622;52.008;5.426;2023-02-15T08:46:00;40.47;;;23.77;;
49730;SDS011;35622;52.008;5.426;2023-02-15T08:48:25;41.40;;;24.00;;
49730;SDS011;35622;52.008;5.426;2023-02-15T08:50:51;38.37;;;23.57;;
49730;SDS011;35622;52.008;5.426;2023-02-15T08:53:16;37.60;;;23.33;;
49730;SDS011;35622;52.008;5.426;2023-02-15T08:55:46;37.60;;;23.38;;
49730;SDS011;35622;52.008;5.426;2023-02-15T08:58:12;37.00;;;22.27;;
49730;SDS011;35622;52.008;5.426;2023-02-15T09:00:37;38.58;;;23.58;;
49730;SDS011;35622;52.008;5.426;2023-02-15T09:03:03;39.42;;;23.48;;
49730;SDS011;35622;52.008;5.426;2023-02-15T09:05:28;37.05;;;23.42;;
49730;SDS011;35622;52.008;5.426;2023-02-15T09:07:54;39.38;;;24.30;;
49730;SDS011;35622;52.008;5.426;2023-02-15T09:10:20;35.47;;;23.58;;
49730;SDS011;35622;52.008;5.426;2023-02-15T09:12:45;35.72;;;23.10;;
49730;SDS011;35622;52.008;5.426;2023-02-15T09:15:11;38.30;;;25.10;;
49730;SDS011;35622;52.008;5.426;2023-02-15T09:17:36;32.63;;;22.65;;
49730;SDS011;35622;52.008;5.426;2023-02-15T09:20:02;36.97;;;23.70;;
49730;SDS011;35622;52.008;5.426;2023-02-15T09:22:28;35.30;;;24.38;;
49730;SDS011;35622;52.008;5.426;2023-02-15T09:24:55;35.35;;;23.90;;
49730;SDS011;35622;52.008;5.426;2023-02-15T09:27:20;36.00;;;24.20;;
49730;SDS011;35622;52.008;5.426;2023-02-15T09:29:46;38.88;;;24.40;;
49730;SDS011;35622;52.008;5.426;2023-02-15T09:32:13;37.65;;;24.42;;
49730;SDS011;35622;52.008;5.426;2023-02-15T09:34:39;35.42;;;24.45;;
49730;SDS011;35622;52.008;5.426;2023-02-15T09:37:05;35.08;;;24.95;;
49730;SDS011;35622;52.008;5.426;2023-02-15T09:39:31;36.90;;;24.92;;
49730;SDS011;35622;52.008;5.426;2023-02-15T09:49:50;36.95;;;25.23;;
49730;SDS011;35622;52.008;5.426;2023-02-15T09:55:24;41.15;;;26.75;;
49730;SDS011;35622;52.008;5.426;2023-02-15T10:01:18;42.80;;;26.15;;
49730;SDS011;35622;52.008;5.426;2023-02-15T10:04:23;37.83;;;25.27;;
49730;SDS011;35622;52.008;5.426;2023-02-15T10:07:10;37.05;;;25.73;;
49730;SDS011;35622;52.008;5.426;2023-02-15T10:10:17;42.05;;;27.38;;
49730;SDS011;35622;52.008;5.426;2023-02-15T10:15:57;37.85;;;25.73;;
49730;SDS011;35622;52.008;5.426;2023-02-15T10:23:46;36.65;;;25.45;;
49730;SDS011;35622;52.008;5.426;2023-02-15T10:26:22;37.00;;;26.75;;
49730;SDS011;35622;52.008;5.426;2023-02-15T10:39:20;38.38;;;27.55;;
49730;SDS011;35622;52.008;5.426;2023-02-15T10:42:02;37.45;;;26.73;;
49730;SDS011;35622;52.008;5.426;2023-02-15T10:44:54;37.45;;;27.48;;
49730;SDS011;35622;52.008;5.426;2023-02-15T10:58:23;38.70;;;28.15;;
49730;SDS011;35622;52.008;5.426;2023-02-15T11:01:12;41.50;;;28.67;;
49730;SDS011;35622;52.008;5.426;2023-02-15T11:04:04;39.63;;;27.75;;
49730;SDS011;35622;52.008;5.426;2023-02-15T11:06:41;40.22;;;28.30;;
49730;SDS011;35622;52.008;5.426;2023-02-15T11:09:13;42.28;;;28.67;;
49730;SDS011;35622;52.008;5.426;2023-02-15T11:11:43;40.40;;;29.02;;
49730;SDS011;35622;52.008;5.426;2023-02-15T11:16:46;39.75;;;27.77;;
49730;SDS011;35622;52.008;5.426;2023-02-15T11:19:21;41.17;;;27.88;;
49730;SDS011;35622;52.008;5.426;2023-02-15T11:21:49;43.25;;;28.90;;
49730;SDS011;35622;52.008;5.426;2023-02-15T11:24:18;42.75;;;28.77;;
49730;SDS011;35622;52.008;5.426;2023-02-15T11:29:32;42.30;;;28.38;;
49730;SDS011;35622;52.008;5.426;2023-02-15T11:32:30;40.85;;;27.45;;
49730;SDS011;35622;52.008;5.426;2023-02-15T11:37:38;40.33;;;28.45;;
49730;SDS011;35622;52.008;5.426;2023-02-15T11:43:07;38.40;;;26.83;;
49730;SDS011;35622;52.008;5.426;2023-02-15T11:45:39;41.63;;;27.13;;
49730;SDS011;35622;52.008;5.426;2023-02-15T11:48:11;36.28;;;26.40;;
49730;SDS011;35622;52.008;5.426;2023-02-15T11:50:39;39.80;;;27.75;;
49730;SDS011;35622;52.008;5.426;2023-02-15T11:53:07;36.72;;;26.98;;
49730;SDS011;35622;52.008;5.426;2023-02-15T11:55:42;35.65;;;26.55;;
49730;SDS011;35622;52.008;5.426;2023-02-15T12:01:00;36.45;;;26.65;;
49730;SDS011;35622;52.008;5.426;2023-02-15T12:06:16;37.45;;;27.02;;
49730;SDS011;35622;52.008;5.426;2023-02-15T12:08:43;36.80;;;26.95;;
49730;SDS011;35622;52.008;5.426;2023-02-15T12:11:17;35.45;;;26.75;;
49730;SDS011;35622;52.008;5.426;2023-02-15T12:13:54;36.38;;;27.33;;
49730;SDS011;35622;52.008;5.426;2023-02-15T12:16:27;35.97;;;26.73;;
49730;SDS011;35622;52.008;5.426;2023-02-15T12:18:57;40.45;;;29.48;;
49730;SDS011;35622;52.008;5.426;2023-02-15T12:23:57;40.92;;;28.77;;
49730;SDS011;35622;52.008;5.426;2023-02-15T12:26:29;37.78;;;29.33;;
49730;SDS011;35622;52.008;5.426;2023-02-15T12:29:01;41.60;;;31.10;;
49730;SDS011;35622;52.008;5.426;2023-02-15T12:31:39;39.15;;;29.48;;
49730;SDS011;35622;52.008;5.426;2023-02-15T12:34:17;41.20;;;29.45;;
49730;SDS011;35622;52.008;5.426;2023-02-15T12:36:47;39.03;;;29.45;;
49730;SDS011;35622;52.008;5.426;2023-02-15T12:39:25;38.22;;;28.67;;
49730;SDS011;35622;52.008;5.426;2023-02-15T12:44:25;41.80;;;29.10;;
49730;SDS011;35622;52.008;5.426;2023-02-15T12:47:00;43.42;;;29.20;;
49730;SDS011;35622;52.008;5.426;2023-02-15T12:49:31;41.22;;;29.15;;
49730;SDS011;35622;52.008;5.426;2023-02-15T12:51:59;42.55;;;30.88;;
49730;SDS011;35622;52.008;5.426;2023-02-15T12:54:39;40.90;;;29.08;;
49730;SDS011;35622;52.008;5.426;2023-02-15T12:59:55;43.47;;;29.70;;
49730;SDS011;35622;52.008;5.426;2023-02-15T13:02:24;40.75;;;29.45;;
49730;SDS011;35622;52.008;5.426;2023-02-15T13:05:04;41.97;;;29.38;;
49730;SDS011;35622;52.008;5.426;2023-02-15T13:07:51;44.60;;;28.70;;
49730;SDS011;35622;52.008;5.426;2023-02-15T13:10:26;43.95;;;29.83;;
49730;SDS011;35622;52.008;5.426;2023-02-15T13:12:54;42.03;;;30.80;;
49730;SDS011;35622;52.008;5.426;2023-02-15T13:18:16;44.15;;;29.40;;
49730;SDS011;35622;52.008;5.426;2023-02-15T13:20:44;41.13;;;28.98;;
49730;SDS011;35622;52.008;5.426;2023-02-15T13:23:20;43.28;;;30.58;;
49730;SDS011;35622;52.008;5.426;2023-02-15T13:25:57;43.53;;;30.67;;
49730;SDS011;35622;52.008;5.426;2023-02-15T13:28:32;43.83;;;30.45;;
49730;SDS011;35622;52.008;5.426;2023-02-15T13:31:04;44.13;;;30.08;;
49730;SDS011;35622;52.008;5.426;2023-02-15T13:33:37;42.17;;;30.58;;
49730;SDS011;35622;52.008;5.426;2023-02-15T13:36:05;43.15;;;30.98;;
49730;SDS011;35622;52.008;5.426;2023-02-15T13:38:50;44.25;;;31.17;;
49730;SDS011;35622;52.008;5.426;2023-02-15T13:44:23;45.63;;;31.42;;
49730;SDS011;35622;52.008;5.426;2023-02-15T13:46:56;46.83;;;31.90;;
49730;SDS011;35622;52.008;5.426;2023-02-15T13:49:50;45.45;;;31.00;;
49730;SDS011;35622;52.008;5.426;2023-02-15T13:52:41;43.53;;;31.20;;
49730;SDS011;35622;52.008;5.426;2023-02-15T14:03:51;43.80;;;30.23;;
49730;SDS011;35622;52.008;5.426;2023-02-15T14:06:53;45.53;;;31.48;;
49730;SDS011;35622;52.008;5.426;2023-02-15T14:23:26;48.33;;;32.58;;
49730;SDS011;35622;52.008;5.426;2023-02-15T14:26:17;47.97;;;32.28;;
49730;SDS011;35622;52.008;5.426;2023-02-15T14:28:49;46.40;;;31.58;;
49730;SDS011;35622;52.008;5.426;2023-02-15T14:31:41;49.08;;;32.47;;
49730;SDS011;35622;52.008;5.426;2023-02-15T14:34:17;48.15;;;32.33;;
49730;SDS011;35622;52.008;5.426;2023-02-15T14:36:52;45.85;;;31.77;;
49730;SDS011;35622;52.008;5.426;2023-02-15T14:42:26;49.88;;;33.15;;
49730;SDS011;35622;52.008;5.426;2023-02-15T14:45:12;46.70;;;32.10;;
49730;SDS011;35622;52.008;5.426;2023-02-15T14:47:44;49.40;;;32.40;;
49730;SDS011;35622;52.008;5.426;2023-02-15T14:53:43;48.83;;;32.90;;
49730;SDS011;35622;52.008;5.426;2023-02-15T14:56:20;44.63;;;32.13;;
49730;SDS011;35622;52.008;5.426;2023-02-15T15:01:16;48.20;;;32.13;;
49730;SDS011;35622;52.008;5.426;2023-02-15T15:03:55;45.83;;;32.58;;
49730;SDS011;35622;52.008;5.426;2023-02-15T15:06:28;47.13;;;31.65;;
49730;SDS011;35622;52.008;5.426;2023-02-15T15:08:59;49.63;;;33.15;;
49730;SDS011;35622;52.008;5.426;2023-02-15T15:11:46;51.08;;;32.85;;
49730;SDS011;35622;52.008;5.426;2023-02-15T15:16:57;50.45;;;33.53;;
49730;SDS011;35622;52.008;5.426;2023-02-15T15:30:47;50.28;;;32.72;;
49730;SDS011;35622;52.008;5.426;2023-02-15T15:32:57;49.85;;;31.80;;
49730;SDS011;35622;52.008;5.426;2023-02-15T15:35:34;49.00;;;31.63;;
49730;SDS011;35622;52.008;5.426;2023-02-15T15:38:33;53.60;;;33.00;;
49730;SDS011;35622;52.008;5.426;2023-02-15T15:43:47;54.85;;;34.97;;
49730;SDS011;35622;52.008;5.426;2023-02-15T15:49:43;54.85;;;33.08;;
49730;SDS011;35622;52.008;5.426;2023-02-15T15:52:12;56.60;;;34.95;;
49730;SDS011;35622;52.008;5.426;2023-02-15T15:54:40;54.25;;;35.92;;
49730;SDS011;35622;52.008;5.426;2023-02-15T15:57:14;50.97;;;33.00;;
49730;SDS011;35622;52.008;5.426;2023-02-15T15:59:48;54.35;;;34.97;;
49730;SDS011;35622;52.008;5.426;2023-02-15T16:02:15;58.40;;;35.90;;
49730;SDS011;35622;52.008;5.426;2023-02-15T16:04:42;53.38;;;35.60;;
49730;SDS011;35622;52.008;5.426;2023-02-15T16:12:31;53.72;;;34.72;;
49730;SDS011;35622;52.008;5.426;2023-02-15T16:15:04;57.45;;;35.05;;
49730;SDS011;35622;52.008;5.426;2023-02-15T16:17:42;49.88;;;32.63;;
49730;SDS011;35622;52.008;5.426;2023-02-15T16:28:50;54.65;;;34.97;;
49730;SDS011;35622;52.008;5.426;2023-02-15T16:31:17;53.72;;;33.95;;
49730;SDS011;35622;52.008;5.426;2023-02-15T16:33:44;60.47;;;35.65;;
49730;SDS011;35622;52.008;5.426;2023-02-15T16:36:21;57.35;;;34.17;;
49730;SDS011;35622;52.008;5.426;2023-02-15T16:41:29;47.05;;;30.35;;
49730;SDS011;35622;52.008;5.426;2023-02-15T16:43:56;57.60;;;33.45;;
49730;SDS011;35622;52.008;5.426;2023-02-15T16:46:29;55.25;;;32.08;;
49730;SDS011;35622;52.008;5.426;2023-02-15T16:49:05;56.10;;;33.83;;
49730;SDS011;35622;52.008;5.426;2023-02-15T16:51:39;53.33;;;33.00;;
49730;SDS011;35622;52.008;5.426;2023-02-15T16:54:08;56.55;;;34.70;;
49730;SDS011;35622;52.008;5.426;2023-02-15T16:56:43;53.72;;;32.25;;
49730;SDS011;35622;52.008;5.426;2023-02-15T17:01:55;58.85;;;36.33;;
49730;SDS011;35622;52.008;5.426;2023-02-15T17:07:20;56.30;;;33.17;;
49730;SDS011;35622;52.008;5.426;2023-02-15T17:09:50;52.55;;;30.83;;
49730;SDS011;35622;52.008;5.426;2023-02-15T17:13:09;58.33;;;34.35;;
49730;SDS011;35622;52.008;5.426;2023-02-15T17:15:29;52.65;;;31.63;;
49730;SDS011;35622;52.008;5.426;2023-02-15T17:18:01;55.67;;;31.70;;
49730;SDS011;35622;52.008;5.426;2023-02-15T17:20:35;54.47;;;31.60;;
49730;SDS011;35622;52.008;5.426;2023-02-15T17:23:03;51.15;;;30.92;;
49730;SDS011;35622;52.008;5.426;2023-02-15T17:25:35;54.58;;;31.00;;
49730;SDS011;35622;52.008;5.426;2023-02-15T17:28:03;49.30;;;29.95;;
49730;SDS011;35622;52.008;5.426;2023-02-15T17:30:29;58.80;;;33.03;;
49730;SDS011;35622;52.008;5.426;2023-02-15T17:33:01;52.58;;;30.17;;
49730;SDS011;35622;52.008;5.426;2023-02-15T17:35:28;44.80;;;27.52;;
49730;SDS011;35622;52.008;5.426;2023-02-15T17:40:42;51.38;;;30.73;;
49730;SDS011;35622;52.008;5.426;2023-02-15T17:43:07;63.90;;;35.28;;
49730;SDS011;35622;52.008;5.426;2023-02-15T17:45:39;52.92;;;29.98;;
49730;SDS011;35622;52.008;5.426;2023-02-15T17:48:09;58.03;;;32.88;;